Time;durP1;ratioP1;P1;durP2;ratioP2;P2;SDS_P1;SDS_P2;PMS_P1;PMS_P2;Temp;Humidity;BMP_temperature;BMP_pressure;BME280_temperature;BME280_humidity;BME280_pressure;Samples;Min_cycle;Max_cycle;Signal;HPM_P1;HPM_P2
2023/08/09 00:00:54;;;;;;;5.07;2.35;;;;;;;;;;5089836;28;20127;-80
2023/08/09 00:03:20;;;;;;;6.35;2.15;;;;;;;;;;5055682;28;20051;-80
2023/08/09 00:05:46;;;;;;;8.27;2.63;;;;;;;;;;5046164;28;20115;-80
2023/08/09 00:08:12;;;;;;;6.30;2.25;;;;;;;;;;5092346;28;20165;-80
2023/08/09 00:10:40;;;;;;;7.68;2.30;;;;;;;;;;5089258;28;20032;-80
2023/08/09 00:13:06;;;;;;;5.70;2.20;;;;;;;;;;5057486;28;20123;-80
2023/08/09 00:15:33;;;;;;;7.95;2.40;;;;;;;;;;5049126;28;20041;-79
2023/08/09 00:17:59;;;;;;;5.82;2.47;;;;;;;;;;5079254;28;20043;-80
2023/08/09 00:20:25;;;;;;;7.65;2.20;;;;;;;;;;5084637;28;20078;-79
2023/08/09 00:22:51;;;;;;;6.80;2.30;;;;;;;;;;5077658;28;20470;-79
2023/08/09 00:25:18;;;;;;;7.05;2.38;;;;;;;;;;5100605;28;20028;-76
2023/08/09 00:27:44;;;;;;;8.20;2.55;;;;;;;;;;5116057;28;20088;-79
2023/08/09 00:30:10;;;;;;;7.40;2.65;;;;;;;;;;5078208;28;20083;-79
2023/08/09 00:32:37;;;;;;;6.15;2.28;;;;;;;;;;5072697;28;20045;-80
2023/08/09 00:35:04;;;;;;;5.70;2.40;;;;;;;;;;5072310;28;20084;-80
2023/08/09 00:37:31;;;;;;;6.35;2.25;;;;;;;;;;5054641;28;20055;-80
2023/08/09 00:39:57;;;;;;;9.70;2.75;;;;;;;;;;5072597;28;20067;-79
2023/08/09 00:42:23;;;;;;;7.80;2.70;;;;;;;;;;5073861;28;20040;-80
2023/08/09 00:44:49;;;;;;;8.05;2.45;;;;;;;;;;5092716;28;20048;-80
2023/08/09 00:47:16;;;;;;;6.28;2.30;;;;;;;;;;5094860;28;20051;-79
2023/08/09 00:49:42;;;;;;;8.23;2.60;;;;;;;;;;5078268;28;20117;-80
2023/08/09 00:52:08;;;;;;;4.93;2.25;;;;;;;;;;5095904;28;20039;-80
2023/08/09 00:54:38;;;;;;;7.78;2.65;;;;;;;;;;5095699;28;20392;-80
2023/08/09 00:57:05;;;;;;;6.95;2.88;;;;;;;;;;5075340;28;20055;-80
2023/08/09 00:59:31;;;;;;;7.20;2.40;;;;;;;;;;5094533;28;20052;-79
2023/08/09 01:01:58;;;;;;;6.82;2.53;;;;;;;;;;5090933;28;20036;-80
2023/08/09 01:04:24;;;;;;;7.40;2.20;;;;;;;;;;5082356;28;20082;-79
2023/08/09 01:06:55;;;;;;;5.35;2.20;;;;;;;;;;5095322;28;20062;-80
2023/08/09 01:09:37;;;;;;;8.38;2.22;;;;;;;;;;5091961;28;20055;-80
2023/08/09 01:12:07;;;;;;;5.28;2.53;;;;;;;;;;5084201;28;20040;-80
2023/08/09 01:14:34;;;;;;;5.95;2.30;;;;;;;;;;5075543;28;20140;-79
2023/08/09 01:17:01;;;;;;;6.18;2.25;;;;;;;;;;5090674;28;20047;-81
2023/08/09 01:19:39;;;;;;;6.78;2.50;;;;;;;;;;5058657;28;20044;-80
2023/08/09 01:22:07;;;;;;;6.57;2.38;;;;;;;;;;5080132;28;20497;-80
2023/08/09 01:24:34;;;;;;;8.77;2.35;;;;;;;;;;5087669;28;20473;-80
2023/08/09 01:27:00;;;;;;;14.55;2.35;;;;;;;;;;5094985;28;20036;-80
2023/08/09 01:29:26;;;;;;;4.03;2.10;;;;;;;;;;5077957;28;20404;-81
2023/08/09 01:31:52;;;;;;;5.00;2.13;;;;;;;;;;5057894;28;20139;-80
2023/08/09 01:34:19;;;;;;;7.10;2.53;;;;;;;;;;5061774;28;20101;-81
2023/08/09 01:36:46;;;;;;;6.07;2.20;;;;;;;;;;5095502;28;20145;-80
2023/08/09 01:39:15;;;;;;;6.50;2.30;;;;;;;;;;5093821;28;20488;-80
2023/08/09 01:41:42;;;;;;;5.80;2.13;;;;;;;;;;5094977;28;20036;-80
2023/08/09 01:44:11;;;;;;;6.00;2.25;;;;;;;;;;5095085;28;20043;-80
2023/08/09 01:46:37;;;;;;;7.20;2.35;;;;;;;;;;5061118;28;20041;-80
2023/08/09 01:49:13;;;;;;;9.50;2.03;;;;;;;;;;5075104;28;20040;-80
2023/08/09 01:51:39;;;;;;;;;;;;;;;;;;5076964;28;20044;-80
2023/08/09 01:54:06;;;;;;;5.63;2.45;;;;;;;;;;5093373;28;20372;-80
2023/08/09 01:56:32;;;;;;;7.63;2.40;;;;;;;;;;5087584;28;20113;-80
2023/08/09 01:58:58;;;;;;;6.35;2.30;;;;;;;;;;5084332;28;20048;-80
2023/08/09 02:01:25;;;;;;;7.47;2.40;;;;;;;;;;5069727;28;20043;-80
2023/08/09 02:03:51;;;;;;;7.78;2.08;;;;;;;;;;5056459;28;20052;-80
2023/08/09 02:06:17;;;;;;;6.90;1.90;;;;;;;;;;5083786;28;20477;-80
2023/08/09 02:08:44;;;;;;;4.22;2.17;;;;;;;;;;5093709;28;20166;-80
2023/08/09 02:11:10;;;;;;;5.70;2.30;;;;;;;;;;5071085;28;20048;-80
2023/08/09 02:13:37;;;;;;;8.52;2.30;;;;;;;;;;5056417;28;20044;-80
2023/08/09 02:16:05;;;;;;;7.43;2.20;;;;;;;;;;5056207;28;20041;-79
2023/08/09 02:18:31;;;;;;;7.93;2.30;;;;;;;;;;5074355;28;20071;-79
2023/08/09 02:20:59;;;;;;;5.38;2.13;;;;;;;;;;5088288;28;20047;-79
2023/08/09 02:23:25;;;;;;;7.45;2.08;;;;;;;;;;5075410;28;20060;-80
2023/08/09 02:25:54;;;;;;;5.32;2.20;;;;;;;;;;5084745;28;20083;-80
2023/08/09 02:28:20;;;;;;;5.55;2.20;;;;;;;;;;5055634;28;20114;-80
2023/08/09 02:30:46;;;;;;;6.45;2.25;;;;;;;;;;5069387;28;20047;-80
2023/08/09 02:33:13;;;;;;;9.85;2.20;;;;;;;;;;5093672;28;20044;-80
2023/08/09 02:35:51;;;;;;;5.38;2.20;;;;;;;;;;5094009;28;20048;-80
2023/08/09 02:38:17;;;;;;;6.78;2.17;;;;;;;;;;5094005;28;20047;-80
2023/08/09 02:40:43;;;;;;;7.70;2.30;;;;;;;;;;5091531;28;20424;-81
2023/08/09 02:43:09;;;;;;;5.40;2.10;;;;;;;;;;5094019;28;20087;-80
2023/08/09 02:45:36;;;;;;;7.00;2.30;;;;;;;;;;5094105;28;20044;-80
2023/08/09 02:48:03;;;;;;;6.90;2.17;;;;;;;;;;5076205;28;20048;-80
2023/08/09 02:50:29;;;;;;;6.10;2.20;;;;;;;;;;5092852;28;20040;-80
2023/08/09 02:52:55;;;;;;;6.47;2.30;;;;;;;;;;5079248;28;20048;-79
2023/08/09 02:55:22;;;;;;;6.53;2.45;;;;;;;;;;5071483;28;20127;-79
2023/08/09 02:57:48;;;;;;;4.88;2.15;;;;;;;;;;5070620;28;20048;-79
2023/08/09 03:00:19;;;;;;;5.40;2.40;;;;;;;;;;5072485;28;20036;-79
2023/08/09 03:02:45;;;;;;;10.10;2.35;;;;;;;;;;5086806;28;20060;-79
2023/08/09 03:05:11;;;;;;;7.20;2.00;;;;;;;;;;5054955;28;20551;-79
2023/08/09 03:07:37;;;;;;;5.20;2.10;;;;;;;;;;5077072;28;20040;-80
2023/08/09 03:10:04;;;;;;;6.25;2.22;;;;;;;;;;5072625;28;20450;-79
2023/08/09 03:12:31;;;;;;;3.97;2.08;;;;;;;;;;5089513;28;20040;-80
2023/08/09 03:14:57;;;;;;;5.38;2.40;;;;;;;;;;5074708;28;20039;-80
2023/08/09 03:17:23;;;;;;;6.45;2.30;;;;;;;;;;5080075;28;20103;-80
2023/08/09 03:19:50;;;;;;;7.68;2.40;;;;;;;;;;5073198;28;20037;-80
2023/08/09 03:22:16;;;;;;;6.43;2.50;;;;;;;;;;5055316;28;20040;-80
2023/08/09 03:24:42;;;;;;;8.65;2.30;;;;;;;;;;5084626;28;20043;-80
2023/08/09 03:27:09;;;;;;;6.35;2.50;;;;;;;;;;5083437;28;20448;-80
2023/08/09 03:29:35;;;;;;;5.32;2.30;;;;;;;;;;5078904;28;20077;-80
2023/08/09 03:32:01;;;;;;;5.40;2.38;;;;;;;;;;5074285;28;20048;-80
2023/08/09 03:34:27;;;;;;;8.25;2.40;;;;;;;;;;5072645;28;20048;-80
2023/08/09 03:36:53;;;;;;;7.13;2.55;;;;;;;;;;5073784;28;20072;-79
2023/08/09 03:39:21;;;;;;;5.30;2.20;;;;;;;;;;5054982;28;20048;-79
2023/08/09 03:41:47;;;;;;;5.10;2.20;;;;;;;;;;5072496;28;20123;-80
2023/08/09 03:44:14;;;;;;;8.38;2.33;;;;;;;;;;5085765;28;20086;-80
2023/08/09 03:46:41;;;;;;;8.43;2.60;;;;;;;;;;5076573;28;20404;-80
2023/08/09 03:49:07;;;;;;;6.32;2.55;;;;;;;;;;5073491;28;20036;-79
2023/08/09 03:51:33;;;;;;;8.75;2.40;;;;;;;;;;5080249;28;20096;-79
2023/08/09 03:54:00;;;;;;;6.85;2.47;;;;;;;;;;5087384;28;20040;-81
2023/08/09 03:56:26;;;;;;;4.75;2.50;;;;;;;;;;5081535;28;20051;-80
2023/08/09 03:58:53;;;;;;;7.47;2.50;;;;;;;;;;5085801;28;20036;-80
2023/08/09 04:01:19;;;;;;;6.75;2.45;;;;;;;;;;5090054;28;20040;-79
2023/08/09 04:03:45;;;;;;;6.18;2.17;;;;;;;;;;5091193;28;20044;-79
2023/08/09 04:06:12;;;;;;;11.93;2.30;;;;;;;;;;5056432;28;20481;-79
2023/08/09 04:08:38;;;;;;;5.13;2.55;;;;;;;;;;5072864;28;20092;-80
2023/08/09 04:11:04;;;;;;;8.13;2.50;;;;;;;;;;5072845;28;20159;-80
2023/08/09 04:13:30;;;;;;;6.70;2.42;;;;;;;;;;5054741;28;20048;-80
2023/08/09 04:15:57;;;;;;;7.60;2.50;;;;;;;;;;5072993;28;20370;-80
2023/08/09 04:18:23;;;;;;;5.65;2.40;;;;;;;;;;5066951;28;20048;-80
2023/08/09 04:20:50;;;;;;;5.15;2.40;;;;;;;;;;5074452;28;20346;-80
2023/08/09 04:23:17;;;;;;;4.82;2.38;;;;;;;;;;5095366;28;20047;-80
2023/08/09 04:25:44;;;;;;;5.85;2.70;;;;;;;;;;5092271;28;20044;-80
2023/08/09 04:28:11;;;;;;;6.55;2.55;;;;;;;;;;5088467;28;20051;-80
2023/08/09 04:30:37;;;;;;;4.07;2.53;;;;;;;;;;5096645;28;20087;-81
2023/08/09 04:33:04;;;;;;;9.73;3.28;;;;;;;;;;5078730;28;20126;-80
2023/08/09 04:35:30;;;;;;;6.40;2.45;;;;;;;;;;5076190;28;20044;-80
2023/08/09 04:37:57;;;;;;;6.70;2.80;;;;;;;;;;5058865;28;20049;-80
2023/08/09 04:40:25;;;;;;;6.45;2.40;;;;;;;;;;5076265;28;20052;-80
2023/08/09 04:42:51;;;;;;;3.75;2.42;;;;;;;;;;5057928;28;20436;-80
2023/08/09 04:45:18;;;;;;;9.77;2.47;;;;;;;;;;5094630;28;20083;-79
2023/08/09 04:47:44;;;;;;;5.38;2.42;;;;;;;;;;5078804;28;20047;-80
2023/08/09 04:50:10;;;;;;;5.70;2.60;;;;;;;;;;5094636;28;20447;-80
2023/08/09 04:52:38;;;;;;;4.47;2.60;;;;;;;;;;5077762;28;20102;-80
2023/08/09 04:55:05;;;;;;;8.15;2.70;;;;;;;;;;5090060;28;20045;-79
2023/08/09 04:57:32;;;;;;;5.45;2.50;;;;;;;;;;5061983;28;20361;-80
2023/08/09 04:59:58;;;;;;;6.30;2.42;;;;;;;;;;5094853;28;20115;-79
2023/08/09 05:02:24;;;;;;;5.50;2.50;;;;;;;;;;5076387;28;20404;-80
2023/08/09 05:04:50;;;;;;;6.47;2.60;;;;;;;;;;5085146;28;20090;-80
2023/08/09 05:07:17;;;;;;;5.95;2.40;;;;;;;;;;5083626;28;20044;-80
2023/08/09 05:09:43;;;;;;;7.72;2.40;;;;;;;;;;5075944;28;20044;-80
2023/08/09 05:12:09;;;;;;;5.00;2.60;;;;;;;;;;5058872;28;20485;-80
2023/08/09 05:14:35;;;;;;;5.43;2.58;;;;;;;;;;5084166;28;20048;-80
2023/08/09 05:17:01;;;;;;;8.13;2.70;;;;;;;;;;5093215;28;20040;-79
2023/08/09 05:19:27;;;;;;;6.50;2.40;;;;;;;;;;5094975;28;20048;-80
2023/08/09 05:21:53;;;;;;;6.75;2.53;;;;;;;;;;5061247;28;20040;-79
2023/08/09 05:24:19;;;;;;;8.57;2.33;;;;;;;;;;5056099;28;20102;-79
2023/08/09 05:26:46;;;;;;;8.30;2.72;;;;;;;;;;5057216;28;20477;-75
2023/08/09 05:29:12;;;;;;;5.63;2.38;;;;;;;;;;5092405;28;20128;-74
2023/08/09 05:31:38;;;;;;;6.22;2.30;;;;;;;;;;5064174;28;20451;-74
2023/08/09 05:34:04;;;;;;;6.90;2.10;;;;;;;;;;5095175;28;20401;-74
2023/08/09 05:36:30;;;;;;;6.40;2.50;;;;;;;;;;5076752;28;20082;-74
2023/08/09 05:38:56;;;;;;;6.95;2.72;;;;;;;;;;5085403;28;20032;-74
2023/08/09 05:41:22;;;;;;;6.85;2.47;;;;;;;;;;5071944;28;20519;-74
2023/08/09 05:43:49;;;;;;;7.35;2.30;;;;;;;;;;5085142;28;20044;-75
2023/08/09 05:46:15;;;;;;;8.00;2.35;;;;;;;;;;5094382;28;20074;-75
2023/08/09 05:48:41;;;;;;;6.38;2.33;;;;;;;;;;5058936;28;20127;-76
2023/08/09 05:51:07;;;;;;;5.95;2.55;;;;;;;;;;5073994;28;20503;-75
2023/08/09 05:53:33;;;;;;;5.80;2.30;;;;;;;;;;5074389;28;20052;-75
2023/08/09 05:55:59;;;;;;;5.50;1.90;;;;;;;;;;5073966;28;20409;-75
2023/08/09 05:58:25;;;;;;;8.93;2.58;;;;;;;;;;5074779;28;20045;-75
2023/08/09 06:00:52;;;;;;;6.93;2.30;;;;;;;;;;5056043;28;20067;-75
2023/08/09 06:03:18;;;;;;;4.82;2.00;;;;;;;;;;5056196;28;20091;-75
2023/08/09 06:05:44;;;;;;;6.22;1.90;;;;;;;;;;5073728;28;20398;-75
2023/08/09 06:08:10;;;;;;;4.93;2.20;;;;;;;;;;5074584;28;20041;-76
2023/08/09 06:10:37;;;;;;;5.13;2.33;;;;;;;;;;5073842;28;20457;-76
2023/08/09 06:13:03;;;;;;;6.72;2.10;;;;;;;;;;5074593;28;20052;-75
2023/08/09 06:15:29;;;;;;;5.45;2.17;;;;;;;;;;5080797;28;20040;-76
2023/08/09 06:17:56;;;;;;;5.88;1.98;;;;;;;;;;5094428;28;20083;-76
2023/08/09 06:20:22;;;;;;;5.88;1.90;;;;;;;;;;5075925;28;20055;-76
2023/08/09 06:22:48;;;;;;;5.05;1.90;;;;;;;;;;5081458;28;20374;-76
2023/08/09 06:25:16;;;;;;;6.03;1.90;;;;;;;;;;5093105;28;20051;-76
2023/08/09 06:27:42;;;;;;;5.93;2.10;;;;;;;;;;5087950;28;20362;-76
2023/08/09 06:30:08;;;;;;;6.03;1.95;;;;;;;;;;5073355;28;20068;-76
2023/08/09 06:32:34;;;;;;;5.78;2.05;;;;;;;;;;5054868;28;20052;-76
2023/08/09 06:35:01;;;;;;;6.47;2.03;;;;;;;;;;5073635;28;20092;-75
2023/08/09 06:37:27;;;;;;;4.03;1.67;;;;;;;;;;5073899;28;20050;-76
2023/08/09 06:39:54;;;;;;;4.38;1.88;;;;;;;;;;5055268;28;20127;-75
2023/08/09 06:42:20;;;;;;;5.50;1.92;;;;;;;;;;5055614;28;20392;-76
2023/08/09 06:44:46;;;;;;;6.63;1.83;;;;;;;;;;5072511;28;20040;-76
2023/08/09 06:47:12;;;;;;;4.35;1.80;;;;;;;;;;5087076;28;20091;-76
2023/08/09 06:49:38;;;;;;;5.85;2.20;;;;;;;;;;5058401;28;20052;-76
2023/08/09 06:52:05;;;;;;;5.50;1.85;;;;;;;;;;5072693;28;20501;-76
2023/08/09 06:54:31;;;;;;;3.85;1.65;;;;;;;;;;5092222;28;20048;-76
2023/08/09 06:56:57;;;;;;;5.07;1.80;;;;;;;;;;5093021;28;20472;-75
2023/08/09 06:59:23;;;;;;;5.40;1.65;;;;;;;;;;5093440;28;20090;-75
2023/08/09 07:01:50;;;;;;;5.03;1.90;;;;;;;;;;5087851;28;20110;-75
2023/08/09 07:04:16;;;;;;;5.45;1.98;;;;;;;;;;5078189;28;20047;-75
2023/08/09 07:06:42;;;;;;;6.25;1.88;;;;;;;;;;5093921;28;20097;-74
2023/08/09 07:09:11;;;;;;;6.03;1.80;;;;;;;;;;5092235;28;20051;-73
2023/08/09 07:11:37;;;;;;;4.28;1.95;;;;;;;;;;5076337;28;20447;-76
2023/08/09 07:14:03;;;;;;;4.43;1.90;;;;;;;;;;5073395;28;20132;-76
2023/08/09 07:16:29;;;;;;;4.72;1.98;;;;;;;;;;5054503;28;20044;-75
2023/08/09 07:18:55;;;;;;;5.13;1.75;;;;;;;;;;5055504;28;20528;-76
2023/08/09 07:21:22;;;;;;;4.85;1.70;;;;;;;;;;5072562;28;20366;-76
2023/08/09 07:23:48;;;;;;;5.25;1.65;;;;;;;;;;5074015;28;20098;-77
2023/08/09 07:26:14;;;;;;;4.07;1.67;;;;;;;;;;5073465;28;20192;-76
2023/08/09 07:28:43;;;;;;;4.65;1.90;;;;;;;;;;5093542;28;20093;-76
2023/08/09 07:31:20;;;;;;;4.70;1.60;;;;;;;;;;5092998;28;20044;-76
2023/08/09 07:33:46;;;;;;;4.70;1.80;;;;;;;;;;5092832;28;20074;-77
2023/08/09 07:36:12;;;;;;;4.88;1.85;;;;;;;;;;5074324;28;20123;-77
2023/08/09 07:38:38;;;;;;;5.70;2.00;;;;;;;;;;5074987;28;20547;-76
2023/08/09 07:41:05;;;;;;;5.90;1.95;;;;;;;;;;5092194;28;20056;-76
2023/08/09 07:43:31;;;;;;;6.88;1.88;;;;;;;;;;5092874;28;20047;-76
2023/08/09 07:45:57;;;;;;;5.07;1.83;;;;;;;;;;5072949;28;20111;-75
2023/08/09 07:48:23;;;;;;;4.97;1.60;;;;;;;;;;5092706;28;20062;-75
2023/08/09 07:50:49;;;;;;;6.07;1.92;;;;;;;;;;5092362;28;20401;-76
2023/08/09 07:53:16;;;;;;;4.93;1.50;;;;;;;;;;5074378;28;20043;-76
2023/08/09 07:55:42;;;;;;;4.18;1.70;;;;;;;;;;5091662;28;20071;-76
2023/08/09 07:58:09;;;;;;;6.18;1.85;;;;;;;;;;5074329;28;20507;-76
2023/08/09 08:00:35;;;;;;;5.47;1.58;;;;;;;;;;5092053;28;20222;-76
2023/08/09 08:03:01;;;;;;;7.43;1.80;;;;;;;;;;5065404;28;20563;-77
2023/08/09 08:05:28;;;;;;;3.00;1.40;;;;;;;;;;5067015;28;20063;-77
2023/08/09 08:07:54;;;;;;;5.03;1.50;;;;;;;;;;5080899;28;20110;-75
2023/08/09 08:10:20;;;;;;;5.13;1.50;;;;;;;;;;5042881;28;20048;-76
2023/08/09 08:12:50;;;;;;;6.00;1.85;;;;;;;;;;5092534;28;20493;-77
2023/08/09 08:15:17;;;;;;;5.97;1.60;;;;;;;;;;5087483;28;20051;-77
2023/08/09 08:17:46;;;;;;;7.75;1.63;;;;;;;;;;5088416;28;20051;-77
2023/08/09 08:20:15;;;;;;;5.80;1.60;;;;;;;;;;5091611;28;20412;-76
2023/08/09 08:22:43;;;;;;;5.07;1.60;;;;;;;;;;5088924;28;20127;-76
2023/08/09 08:25:10;;;;;;;4.75;1.55;;;;;;;;;;5071932;28;20044;-77
2023/08/09 08:27:36;;;;;;;4.47;1.48;;;;;;;;;;5086518;28;20040;-76
2023/08/09 08:30:04;;;;;;;5.55;1.60;;;;;;;;;;5090263;28;20051;-77
2023/08/09 08:32:30;;;;;;;6.00;1.58;;;;;;;;;;5074336;28;20083;-77
2023/08/09 08:34:57;;;;;;;4.50;1.33;;;;;;;;;;5091989;28;20054;-75
2023/08/09 08:37:26;;;;;;;3.85;1.35;;;;;;;;;;5092328;28;20075;-76
2023/08/09 08:39:52;;;;;;;3.53;1.77;;;;;;;;;;5090434;28;20090;-77
2023/08/09 08:42:18;;;;;;;5.63;1.40;;;;;;;;;;5089766;28;20040;-77
2023/08/09 08:44:45;;;;;;;2.63;1.42;;;;;;;;;;5089896;28;20567;-76
2023/08/09 08:47:11;;;;;;;4.80;1.50;;;;;;;;;;5074002;28;20040;-77
2023/08/09 08:49:40;;;;;;;4.68;1.60;;;;;;;;;;5092095;28;20553;-77
2023/08/09 08:52:10;;;;;;;3.00;1.40;;;;;;;;;;5088191;28;20044;-77
2023/08/09 08:54:36;;;;;;;4.53;1.58;;;;;;;;;;5090706;28;20048;-78
2023/08/09 08:57:03;;;;;;;4.90;1.70;;;;;;;;;;5089878;28;20101;-77
2023/08/09 08:59:29;;;;;;;3.65;1.50;;;;;;;;;;5069812;28;20132;-77
2023/08/09 09:01:56;;;;;;;3.15;1.20;;;;;;;;;;5074960;28;20056;-79
2023/08/09 09:04:23;;;;;;;3.45;1.27;;;;;;;;;;5081144;28;20493;-79
2023/08/09 09:06:50;;;;;;;5.75;1.50;;;;;;;;;;5073713;28;20120;-78
2023/08/09 09:09:17;;;;;;;4.53;1.23;;;;;;;;;;5081445;28;20593;-76
2023/08/09 09:11:44;;;;;;;5.90;1.77;;;;;;;;;;5076423;28;20067;-77
2023/08/09 09:14:11;;;;;;;3.50;1.63;;;;;;;;;;5074754;28;20048;-77
2023/08/09 09:16:37;;;;;;;5.43;1.40;;;;;;;;;;5074437;28;20102;-77
2023/08/09 09:19:04;;;;;;;4.38;1.50;;;;;;;;;;5075819;28;20059;-78
2023/08/09 09:21:34;;;;;;;5.18;1.50;;;;;;;;;;5075706;28;20045;-77
2023/08/09 09:24:10;;;;;;;5.07;1.52;;;;;;;;;;5074406;28;20149;-77
2023/08/09 09:26:39;;;;;;;3.97;1.50;;;;;;;;;;5074340;28;20048;-78
2023/08/09 09:29:09;;;;;;;9.13;1.80;;;;;;;;;;5074579;28;20040;-77
2023/08/09 09:31:39;;;;;;;4.38;1.45;;;;;;;;;;5073939;28;20435;-78
2023/08/09 09:34:09;;;;;;;2.53;1.40;;;;;;;;;;5056849;28;20391;-78
2023/08/09 09:36:39;;;;;;;6.10;1.40;;;;;;;;;;5056512;28;20040;-78
2023/08/09 09:39:12;;;;;;;3.60;1.67;;;;;;;;;;5075082;28;20083;-78
2023/08/09 09:41:39;;;;;;;5.15;1.50;;;;;;;;;;5056822;28;20160;-77
2023/08/09 09:44:05;;;;;;;4.43;1.63;;;;;;;;;;5057064;28;20052;-77
2023/08/09 09:46:31;;;;;;;4.32;1.63;;;;;;;;;;5074489;28;20194;-76
2023/08/09 09:49:05;;;;;;;4.57;1.40;;;;;;;;;;5074647;28;20033;-77
2023/08/09 09:51:32;;;;;;;5.15;1.55;;;;;;;;;;5074599;28;20421;-77
2023/08/09 09:53:58;;;;;;;3.15;1.40;;;;;;;;;;5074543;28;20192;-78
2023/08/09 09:56:24;;;;;;;3.80;1.50;;;;;;;;;;5073426;28;20049;-77
2023/08/09 09:58:50;;;;;;;3.45;1.55;;;;;;;;;;5073201;28;20539;-78
2023/08/09 10:01:20;;;;;;;4.72;1.95;;;;;;;;;;5076275;28;20040;-78
2023/08/09 10:03:48;;;;;;;5.95;1.50;;;;;;;;;;5084943;28;20052;-78
2023/08/09 10:06:21;;;;;;;3.80;1.40;;;;;;;;;;5073982;28;20064;-78
2023/08/09 10:08:48;;;;;;;2.85;1.50;;;;;;;;;;5058097;28;20045;-77
2023/08/09 10:11:14;;;;;;;2.92;1.40;;;;;;;;;;5073254;28;20193;-77
2023/08/09 10:13:41;;;;;;;3.42;1.45;;;;;;;;;;5074252;28;20395;-77
2023/08/09 10:16:10;;;;;;;4.03;1.40;;;;;;;;;;5074686;28;20048;-85
2023/08/09 10:18:38;;;;;;;2.53;1.50;;;;;;;;;;5056995;28;20126;-85
2023/08/09 10:21:09;;;;;;;2.22;1.50;;;;;;;;;;5065080;28;20082;-84
2023/08/09 10:23:35;;;;;;;3.22;1.38;;;;;;;;;;5072975;28;20051;-84
2023/08/09 10:26:01;;;;;;;3.95;1.50;;;;;;;;;;5060057;28;20040;-85
2023/08/09 10:28:47;;;;;;;2.50;1.45;;;;;;;;;;5096846;28;20082;-86
2023/08/09 10:31:14;;;;;;;3.10;1.40;;;;;;;;;;5066396;28;20078;-86
2023/08/09 10:34:03;;;;;;;3.60;1.20;;;;;;;;;;5077823;28;20044;-84
2023/08/09 10:36:32;;;;;;;4.32;1.38;;;;;;;;;;5057604;28;20040;-84
2023/08/09 10:38:59;;;;;;;4.28;1.40;;;;;;;;;;5074560;28;20039;-84
2023/08/09 10:41:28;;;;;;;2.85;1.40;;;;;;;;;;5074658;28;20047;-84
2023/08/09 10:44:01;;;;;;;4.28;1.30;;;;;;;;;;5083251;28;20040;-84
2023/08/09 10:46:27;;;;;;;3.42;1.20;;;;;;;;;;5036718;28;20413;-84
2023/08/09 10:48:59;;;;;;;4.13;1.30;;;;;;;;;;5070398;28;20106;-84
2023/08/09 10:51:26;;;;;;;5.07;1.33;;;;;;;;;;5038265;28;20040;-75
2023/08/09 10:53:52;;;;;;;3.15;1.30;;;;;;;;;;5072798;28;20037;-74
2023/08/09 10:56:28;;;;;;;3.58;1.20;;;;;;;;;;5084732;28;20052;-74
2023/08/09 10:59:04;;;;;;;3.53;1.38;;;;;;;;;;5073149;28;20545;-73
2023/08/09 11:01:31;;;;;;;3.47;1.30;;;;;;;;;;5086391;28;20457;-74
2023/08/09 11:03:58;;;;;;;4.82;1.50;;;;;;;;;;5071265;28;20127;-74
2023/08/09 11:06:33;;;;;;;3.38;1.50;;;;;;;;;;5054662;28;20051;-73
2023/08/09 11:09:32;;;;;;;3.13;1.20;;;;;;;;;;5072789;28;20048;-74
2023/08/09 11:11:58;;;;;;;4.15;1.42;;;;;;;;;;5087047;28;20577;-75
2023/08/09 11:14:24;;;;;;;3.47;1.38;;;;;;;;;;5086100;28;20191;-75
2023/08/09 11:16:51;;;;;;;2.03;1.27;;;;;;;;;;5076597;28;20096;-73
2023/08/09 11:19:20;;;;;;;4.40;1.30;;;;;;;;;;5072713;28;20489;-74
2023/08/09 11:21:50;;;;;;;4.15;1.48;;;;;;;;;;5073010;28;20080;-74
2023/08/09 11:24:18;;;;;;;3.45;1.30;;;;;;;;;;5077418;28;20064;-77
2023/08/09 11:26:46;;;;;;;4.55;1.50;;;;;;;;;;5074674;28;20357;-75
2023/08/09 11:29:12;;;;;;;3.90;1.50;;;;;;;;;;5092172;28;20140;-76
2023/08/09 11:31:45;;;;;;;4.03;1.40;;;;;;;;;;5064547;28;20072;-76
2023/08/09 11:34:13;;;;;;;2.45;1.30;;;;;;;;;;5075829;28;20044;-74
2023/08/09 11:36:40;;;;;;;2.10;1.30;;;;;;;;;;5054790;28;20098;-76
2023/08/09 11:39:08;;;;;;;2.60;1.20;;;;;;;;;;5076823;28;20052;-75
2023/08/09 11:41:56;;;;;;;5.65;1.40;;;;;;;;;;5088980;28;20051;-75
2023/08/09 11:44:26;;;;;;;2.10;1.25;;;;;;;;;;5088598;28;20047;-75
2023/08/09 11:46:54;;;;;;;3.03;1.30;;;;;;;;;;5055580;28;20037;-76
2023/08/09 11:49:27;;;;;;;3.45;1.50;;;;;;;;;;5092352;28;20064;-74
2023/08/09 11:51:53;;;;;;;8.80;3.30;;;;;;;;;;5092565;28;20040;-75
2023/08/09 11:54:19;;;;;;;8.77;2.83;;;;;;;;;;5091943;28;20040;-74
2023/08/09 11:56:45;;;;;;;3.45;1.60;;;;;;;;;;5077949;28;20040;-74
2023/08/09 11:59:16;;;;;;;5.18;1.80;;;;;;;;;;5053891;28;20547;-74
2023/08/09 12:01:45;;;;;;;12.98;4.05;;;;;;;;;;5054107;28;20102;-75
2023/08/09 12:04:13;;;;;;;8.10;2.80;;;;;;;;;;5080611;28;20044;-75
2023/08/09 12:06:46;;;;;;;4.13;1.70;;;;;;;;;;5076860;28;20078;-75
2023/08/09 12:09:26;;;;;;;7.35;1.80;;;;;;;;;;5057278;28;20046;-74
2023/08/09 12:11:52;;;;;;;7.15;2.13;;;;;;;;;;5089454;28;20047;-76
2023/08/09 12:14:18;;;;;;;5.82;2.00;;;;;;;;;;5090185;28;20500;-74
2023/08/09 12:16:44;;;;;;;5.00;1.90;;;;;;;;;;5090482;28;20051;-74
2023/08/09 12:19:10;;;;;;;4.10;1.70;;;;;;;;;;5078686;28;20045;-75
2023/08/09 12:21:37;;;;;;;4.57;1.50;;;;;;;;;;5077859;28;20083;-75
2023/08/09 12:24:03;;;;;;;4.43;1.70;;;;;;;;;;5082640;28;20040;-76
2023/08/09 12:26:32;;;;;;;2.72;1.30;;;;;;;;;;5060908;28;20068;-75
2023/08/09 12:28:58;;;;;;;4.90;1.70;;;;;;;;;;5085842;28;20610;-75
2023/08/09 12:31:24;;;;;;;7.75;1.60;;;;;;;;;;5078091;28;20082;-75
2023/08/09 12:33:50;;;;;;;5.53;1.73;;;;;;;;;;5071828;28;20056;-74
2023/08/09 12:36:18;;;;;;;3.67;1.50;;;;;;;;;;5071633;28;20123;-75
2023/08/09 12:38:44;;;;;;;6.05;1.58;;;;;;;;;;5071934;28;20052;-75
2023/08/09 12:41:10;;;;;;;6.32;1.80;;;;;;;;;;5071415;28;20041;-77
2023/08/09 12:43:36;;;;;;;5.20;1.80;;;;;;;;;;5090759;28;20071;-75
2023/08/09 12:46:02;;;;;;;6.88;1.80;;;;;;;;;;5087863;28;20067;-74
2023/08/09 12:48:29;;;;;;;3.85;1.70;;;;;;;;;;5090441;28;20044;-74
2023/08/09 12:50:55;;;;;;;6.28;1.58;;;;;;;;;;5078987;28;20549;-76
2023/08/09 12:53:21;;;;;;;4.72;1.70;;;;;;;;;;5065439;28;20048;-76
2023/08/09 12:55:47;;;;;;;4.07;1.42;;;;;;;;;;5095271;28;20052;-75
2023/08/09 12:58:14;;;;;;;3.38;1.60;;;;;;;;;;5092768;28;20127;-77
2023/08/09 13:00:40;;;;;;;4.32;1.60;;;;;;;;;;5057370;28;20119;-76
2023/08/09 13:03:07;;;;;;;6.00;1.40;;;;;;;;;;5058690;28;20091;-76
2023/08/09 13:05:34;;;;;;;8.57;1.83;;;;;;;;;;5080310;28;20045;-75
2023/08/09 13:08:00;;;;;;;3.97;1.52;;;;;;;;;;5087664;28;20049;-75
2023/08/09 13:10:27;;;;;;;5.40;1.85;;;;;;;;;;5092547;28;20503;-75
2023/08/09 13:12:53;;;;;;;3.40;1.48;;;;;;;;;;5088898;28;20507;-75
2023/08/09 13:15:19;;;;;;;3.25;1.50;;;;;;;;;;5087699;28;20135;-75
2023/08/09 13:17:46;;;;;;;7.22;1.75;;;;;;;;;;5093995;28;20481;-75
2023/08/09 13:20:12;;;;;;;7.57;1.98;;;;;;;;;;5095142;28;20067;-76
2023/08/09 13:22:42;;;;;;;6.70;1.70;;;;;;;;;;5074133;28;20040;-76
2023/08/09 13:25:09;;;;;;;6.30;1.90;;;;;;;;;;5075424;28;20055;-76
2023/08/09 13:27:39;;;;;;;6.85;1.85;;;;;;;;;;5094593;28;20063;-76
2023/08/09 13:30:08;;;;;;;5.65;1.95;;;;;;;;;;5094818;28;20400;-76
2023/08/09 13:32:35;;;;;;;6.55;1.98;;;;;;;;;;5094806;28;20052;-75
2023/08/09 13:35:01;;;;;;;7.70;2.10;;;;;;;;;;5094801;28;20044;-75
2023/08/09 13:37:27;;;;;;;6.72;1.90;;;;;;;;;;5095235;28;20040;-76
2023/08/09 13:39:53;;;;;;;7.82;1.80;;;;;;;;;;5076917;28;20048;-76
2023/08/09 13:42:20;;;;;;;6.88;1.90;;;;;;;;;;5095202;28;20044;-75
2023/08/09 13:44:46;;;;;;;8.82;1.90;;;;;;;;;;5099007;28;20071;-73
2023/08/09 13:47:13;;;;;;;4.90;1.80;;;;;;;;;;5102793;28;20040;-74
2023/08/09 13:49:39;;;;;;;6.25;1.95;;;;;;;;;;5097855;28;20048;-74
2023/08/09 13:52:07;;;;;;;4.28;1.50;;;;;;;;;;5089021;28;20055;-75
2023/08/09 13:54:33;;;;;;;4.07;1.55;;;;;;;;;;5076120;28;20059;-74
2023/08/09 13:56:59;;;;;;;6.53;1.73;;;;;;;;;;5101655;28;20093;-75
2023/08/09 13:59:26;;;;;;;4.75;1.70;;;;;;;;;;5095983;28;20055;-76
2023/08/09 14:01:52;;;;;;;9.77;1.80;;;;;;;;;;5076341;28;20044;-76
2023/08/09 14:04:19;;;;;;;6.07;1.73;;;;;;;;;;5092482;28;20044;-76
2023/08/09 14:06:46;;;;;;;6.85;1.67;;;;;;;;;;5076257;28;20048;-76
2023/08/09 14:09:13;;;;;;;5.07;1.77;;;;;;;;;;5075576;28;20511;-76
2023/08/09 14:11:39;;;;;;;6.82;1.80;;;;;;;;;;5076330;28;20052;-76
2023/08/09 14:14:05;;;;;;;5.72;1.60;;;;;;;;;;5059428;28;20072;-76
2023/08/09 14:16:31;;;;;;;5.00;1.75;;;;;;;;;;5084972;28;20119;-76
2023/08/09 14:18:58;;;;;;;5.18;1.95;;;;;;;;;;5069992;28;20480;-76
2023/08/09 14:21:24;;;;;;;5.75;1.90;;;;;;;;;;5080102;28;20048;-76
2023/08/09 14:23:50;;;;;;;6.38;1.63;;;;;;;;;;5082604;28;20040;-74
2023/08/09 14:26:16;;;;;;;4.63;1.58;;;;;;;;;;5058442;28;20079;-74
2023/08/09 14:28:42;;;;;;;5.40;1.67;;;;;;;;;;5073414;28;20060;-75
2023/08/09 14:31:08;;;;;;;7.63;2.08;;;;;;;;;;5080766;28;20047;-75
2023/08/09 14:33:35;;;;;;;6.50;1.80;;;;;;;;;;5088722;28;20135;-76
2023/08/09 14:36:02;;;;;;;5.50;1.50;;;;;;;;;;5078737;28;20478;-75
2023/08/09 14:38:28;;;;;;;5.40;1.50;;;;;;;;;;5071271;28;20051;-78
2023/08/09 14:40:54;;;;;;;7.07;1.80;;;;;;;;;;5074752;28;20134;-76
2023/08/09 14:43:20;;;;;;;5.07;1.70;;;;;;;;;;5079472;28;20063;-78